createdAt,value
2022-07-28T00:01:44.220Z,98503.69
2022-07-28T00:04:14.170Z,98498.53
2022-07-28T00:06:42.490Z,98501.53
2022-07-28T00:09:10.534Z,98493.03
2022-07-28T00:11:54.433Z,98499.31
2022-07-28T00:14:23.126Z,98487.06
2022-07-28T00:16:51.314Z,98496.03
2022-07-28T00:19:21.219Z,98483.47
2022-07-28T00:21:49.393Z,98483.47
2022-07-28T00:24:17.716Z,98485.38
2022-07-28T00:26:46.863Z,98474.72
2022-07-28T00:29:15.137Z,98475.25
2022-07-28T00:31:43.295Z,98479.63
2022-07-28T00:34:12.261Z,98486.47
2022-07-28T00:36:44.556Z,98480.16
2022-07-28T00:39:12.839Z,98480.97
2022-07-28T00:41:42.678Z,98474.19
2022-07-28T00:44:11.347Z,98474.16
2022-07-28T00:46:39.727Z,98477.44
2022-07-28T00:49:08.147Z,98465.16
2022-07-28T00:51:36.428Z,98463.78
2022-07-28T00:54:05.861Z,98469.25
2022-07-28T00:56:34.300Z,98470.91
2022-07-28T00:59:02.775Z,98464.09
2022-07-28T01:01:30.988Z,98472.03
2022-07-28T01:04:01.921Z,98461.38
2022-07-28T01:06:44.132Z,98433.44
2022-07-28T01:09:20.831Z,98457.75
2022-07-28T01:11:52.189Z,98452.28
2022-07-28T01:14:24.897Z,98453.69
2022-07-28T01:16:56.667Z,98452.88
2022-07-28T01:19:39.290Z,98444.13
2022-07-28T01:22:10.515Z,98450.63
2022-07-28T01:24:50.833Z,98450.06
2022-07-28T01:27:39.727Z,98449.50
2022-07-28T01:30:09.346Z,98451.16
2022-07-28T01:32:41.343Z,98445.13
2022-07-28T01:35:17.545Z,98449.47
2022-07-28T01:37:47.137Z,98439.06
2022-07-28T01:40:17.713Z,98444.00
2022-07-28T01:42:47.538Z,98445.06
2022-07-28T01:45:19.074Z,98441.56
2022-07-28T01:47:51.879Z,98426.44
2022-07-28T01:50:23.719Z,98440.66
2022-07-28T01:52:52.461Z,98430.22
2022-07-28T01:55:22.020Z,98440.47
2022-07-28T01:57:51.139Z,98440.94
2022-07-28T02:00:19.386Z,98436.19
2022-07-28T02:02:50.099Z,98431.50
2022-07-28T02:05:21.906Z,98429.03
2022-07-28T02:07:51.332Z,98435.84
2022-07-28T02:10:19.730Z,98427.16
2022-07-28T02:12:49.878Z,98427.41
2022-07-28T02:15:18.778Z,98415.38
2022-07-28T02:17:47.357Z,98420.28
2022-07-28T02:20:19.935Z,98415.88
2022-07-28T02:22:52.097Z,98410.97
2022-07-28T02:25:20.538Z,98415.88
2022-07-28T02:27:50.310Z,98411.50
2022-07-28T02:30:19.338Z,98418.28
2022-07-28T02:32:50.945Z,98414.16
2022-07-28T02:35:25.586Z,98410.06
2022-07-28T02:38:00.523Z,98412.78
2022-07-28T02:40:32.394Z,98413.75
2022-07-28T02:43:00.623Z,98416.09
2022-07-28T02:45:29.501Z,98411.41
2022-07-28T02:47:59.377Z,98402.31
2022-07-28T02:50:29.706Z,98399.63
2022-07-28T02:53:00.195Z,98406.41
2022-07-28T02:55:29.042Z,98407.06
2022-07-28T02:57:58.192Z,98402.69
2022-07-28T03:00:26.741Z,98401.03
2022-07-28T03:02:57.602Z,98395.00
2022-07-28T03:05:25.990Z,98396.91
2022-07-28T03:07:58.681Z,98408.06
2022-07-28T03:10:33.707Z,98395.28
2022-07-28T03:13:03.397Z,98402.06
2022-07-28T03:15:32.028Z,98395.50
2022-07-28T03:18:00.630Z,98398.78
2022-07-28T03:20:28.710Z,98400.63
2022-07-28T03:22:59.077Z,98396.56
2022-07-28T03:25:28.546Z,98397.22
2022-07-28T03:28:00.356Z,98393.84
2022-07-28T03:30:30.439Z,98401.72
2022-07-28T03:33:00.000Z,98408.81
2022-07-28T03:35:28.677Z,98399.56
2022-07-28T03:37:59.961Z,98404.69
2022-07-28T03:40:29.899Z,98406.59
2022-07-28T03:42:58.502Z,98408.84
2022-07-28T03:45:27.887Z,98404.44
2022-07-28T03:47:56.646Z,98404.13
2022-07-28T03:50:27.948Z,98415.00
2022-07-28T03:53:00.394Z,98423.06
2022-07-28T03:55:28.468Z,98413.94
2022-07-28T03:57:57.702Z,98418.44
2022-07-28T04:00:26.684Z,98421.06
2022-07-28T04:02:54.788Z,98421.78
2022-07-28T04:05:22.855Z,98419.19
2022-07-28T04:07:53.286Z,98416.97
2022-07-28T04:10:22.912Z,98416.88
2022-07-28T04:12:51.723Z,98421.00
2022-07-28T04:15:20.607Z,98425.94
2022-07-28T04:17:49.548Z,98422.59
2022-07-28T04:20:18.376Z,98419.63
2022-07-28T04:22:46.744Z,98419.34
2022-07-28T04:25:15.597Z,98426.94
2022-07-28T04:27:45.264Z,98426.78
2022-07-28T04:30:17.084Z,98416.28
2022-07-28T04:32:45.381Z,98419.25
2022-07-28T04:35:17.321Z,98428.78
2022-07-28T04:37:46.381Z,98418.94
2022-07-28T04:40:14.636Z,98423.16
2022-07-28T04:42:43.065Z,98428.06
2022-07-28T04:45:13.586Z,98425.44
2022-07-28T04:47:41.662Z,98425.41
2022-07-28T04:50:11.016Z,98422.16
2022-07-28T04:52:39.956Z,98424.63
2022-07-28T04:55:08.702Z,98424.75
2022-07-28T04:57:36.830Z,98420.81
2022-07-28T05:00:11.887Z,98424.63
2022-07-28T05:02:46.013Z,98424.66
2022-07-28T05:05:14.176Z,98419.44
2022-07-28T05:07:42.686Z,98391.81
2022-07-28T05:10:11.734Z,98420.78
2022-07-28T05:12:39.775Z,98421.63
2022-07-28T05:15:10.592Z,98426.84
2022-07-28T05:17:39.039Z,98417.19
2022-07-28T05:20:09.377Z,98417.81
2022-07-28T05:22:43.588Z,98420.66
2022-07-28T05:25:18.662Z,98428.50
2022-07-28T05:27:47.450Z,98423.06
2022-07-28T05:30:15.554Z,98421.00
2022-07-28T05:32:45.182Z,98424.53
2022-07-28T05:35:14.675Z,98413.97
2022-07-28T05:37:44.944Z,98427.44
2022-07-28T05:40:14.716Z,98429.88
2022-07-28T05:42:43.374Z,98439.59
2022-07-28T05:45:15.718Z,98428.47
2022-07-28T05:47:46.327Z,98435.75
2022-07-28T05:50:15.963Z,98428.56
2022-07-28T05:52:44.006Z,98428.88
2022-07-28T05:55:15.211Z,98421.97
2022-07-28T05:57:43.298Z,98433.84
2022-07-28T06:00:12.805Z,98431.59
2022-07-28T06:02:40.959Z,98432.16
2022-07-28T06:05:09.457Z,98429.59
2022-07-28T06:07:43.723Z,98427.94
2022-07-28T06:10:13.296Z,98426.22
2022-07-28T06:12:41.922Z,98422.03
2022-07-28T06:15:13.426Z,98433.34
2022-07-28T06:17:41.797Z,98426.22
2022-07-28T06:20:10.577Z,98426.28
2022-07-28T06:22:44.590Z,98428.00
2022-07-28T06:25:14.020Z,98424.84
2022-07-28T06:27:42.241Z,98428.56
2022-07-28T06:30:10.638Z,98427.44
2022-07-28T06:32:38.884Z,98427.47
2022-07-28T06:35:07.864Z,98433.25
2022-07-28T06:37:35.976Z,98433.22
2022-07-28T06:40:07.225Z,98431.81
2022-07-28T06:42:35.317Z,98431.16
2022-07-28T06:45:03.389Z,98425.41
2022-07-28T06:47:31.467Z,98424.84
2022-07-28T06:49:59.631Z,98422.38
2022-07-28T06:52:28.065Z,98417.78
2022-07-28T06:55:00.364Z,98430.78
2022-07-28T06:57:33.813Z,98422.06
2022-07-28T07:00:04.121Z,98421.75
2022-07-28T07:02:32.183Z,98417.34
2022-07-28T07:05:00.219Z,98416.59
2022-07-28T07:07:28.284Z,98418.81
2022-07-28T07:09:56.347Z,98411.63
2022-07-28T07:12:24.433Z,98416.34
2022-07-28T07:14:54.065Z,98416.59
2022-07-28T07:17:22.128Z,98415.69
2022-07-28T07:19:50.238Z,98413.22
2022-07-28T07:22:20.379Z,98406.75
2022-07-28T07:24:50.475Z,98404.50
2022-07-28T07:27:21.716Z,98402.78
2022-07-28T07:29:51.903Z,98404.03
2022-07-28T07:32:21.388Z,98408.84
2022-07-28T07:34:49.609Z,98401.69
2022-07-28T07:37:17.695Z,98408.94
2022-07-28T07:39:45.789Z,98403.75
2022-07-28T07:42:13.840Z,98407.06
2022-07-28T07:44:41.900Z,98393.22
2022-07-28T07:47:18.290Z,98398.59
2022-07-28T07:49:47.738Z,98392.31
2022-07-28T07:52:16.532Z,98394.22
2022-07-28T07:54:45.410Z,98393.84
2022-07-28T07:57:14.300Z,98391.94
2022-07-28T07:59:42.332Z,98391.03
2022-07-28T08:02:10.434Z,98392.81
2022-07-28T08:04:39.206Z,98403.00
2022-07-28T08:07:09.881Z,98400.66
2022-07-28T08:09:37.982Z,98395.78
2022-07-28T08:12:06.859Z,98386.44
2022-07-28T08:14:35.012Z,98400.31
2022-07-28T08:17:03.104Z,98390.38
2022-07-28T08:19:31.272Z,98386.22
2022-07-28T08:21:59.373Z,98390.66
2022-07-28T08:24:32.802Z,98390.72
2022-07-28T08:27:02.161Z,98391.06
2022-07-28T08:29:30.254Z,98385.31
2022-07-28T08:31:58.385Z,98385.28
2022-07-28T08:34:32.690Z,98385.47
2022-07-28T08:37:02.250Z,98392.75
2022-07-28T08:39:34.790Z,98387.63
2022-07-28T08:42:05.497Z,98382.16
2022-07-28T08:44:37.111Z,98383.78
2022-07-28T08:47:05.734Z,98381.09
2022-07-28T08:49:34.324Z,98387.78
2022-07-28T08:52:11.004Z,98387.06
2022-07-28T08:54:42.113Z,98380.03
2022-07-28T08:57:11.166Z,98371.53
2022-07-28T08:59:39.876Z,98381.31
2022-07-28T09:02:12.256Z,98376.63
2022-07-28T09:04:41.157Z,98375.53
2022-07-28T09:07:09.456Z,98369.97
2022-07-28T09:09:38.399Z,98368.00
2022-07-28T09:12:08.157Z,98368.50
2022-07-28T09:14:36.416Z,98371.41
2022-07-28T09:17:05.484Z,98365.75
2022-07-28T09:19:35.779Z,98354.94
2022-07-28T09:22:04.212Z,98357.31
2022-07-28T09:24:36.453Z,98354.59
2022-07-28T09:27:06.707Z,98362.19
2022-07-28T09:29:40.612Z,98351.41
2022-07-28T09:32:11.194Z,98354.34
2022-07-28T09:34:42.917Z,98358.56
2022-07-28T09:37:24.829Z,98344.63
2022-07-28T09:39:57.945Z,98349.56
2022-07-28T09:42:26.387Z,98356.66
2022-07-28T09:45:22.424Z,98348.03
2022-07-28T09:48:08.865Z,98341.22
2022-07-28T09:50:37.223Z,98333.84
2022-07-28T09:53:20.159Z,98339.16
2022-07-28T09:55:55.217Z,98331.22
2022-07-28T09:58:23.329Z,98333.84
2022-07-28T10:01:09.796Z,98336.16
2022-07-28T10:03:40.558Z,98318.09
2022-07-28T10:06:09.362Z,98314.81
2022-07-28T10:08:41.990Z,98313.00
2022-07-28T10:11:10.808Z,98305.63
2022-07-28T10:13:52.201Z,98313.72
2022-07-28T10:16:22.780Z,98310.56
2022-07-28T10:18:50.966Z,98305.16
2022-07-28T10:21:20.466Z,98308.63
2022-07-28T10:23:49.836Z,98302.97
2022-07-28T10:26:18.254Z,98299.25
2022-07-28T10:28:48.767Z,98300.63
2022-07-28T10:31:21.077Z,98290.28
2022-07-28T10:33:52.128Z,98284.63
2022-07-28T10:36:23.964Z,98293.31
2022-07-28T10:38:55.169Z,98280.81
2022-07-28T10:41:30.084Z,98274.13
2022-07-28T10:43:58.393Z,98285.88
2022-07-28T10:46:27.093Z,98289.69
2022-07-28T10:48:56.776Z,98288.56
2022-07-28T10:51:28.442Z,98281.38
2022-07-28T10:54:02.265Z,98282.28
2022-07-28T10:56:36.283Z,98286.94
2022-07-28T10:59:07.563Z,98286.59
2022-07-28T11:01:51.626Z,98285.97
2022-07-28T11:04:38.668Z,98277.53
2022-07-28T11:07:11.789Z,98275.25
2022-07-28T11:09:40.091Z,98279.69
2022-07-28T11:12:09.629Z,98280.13
2022-07-28T11:14:39.458Z,98269.97
2022-07-28T11:17:13.716Z,98275.84
2022-07-28T11:20:25.007Z,98263.50
2022-07-28T11:22:41.440Z,98261.53
2022-07-28T11:25:22.744Z,98265.00
2022-07-28T11:28:04.498Z,98264.06
2022-07-28T11:30:52.348Z,98265.00
2022-07-28T11:33:21.283Z,98257.72
2022-07-28T11:35:59.512Z,98247.16
2022-07-28T11:38:29.278Z,98245.81
2022-07-28T11:40:57.722Z,98257.25
2022-07-28T11:43:39.029Z,98254.47
2022-07-28T11:46:23.580Z,98260.47
2022-07-28T11:49:19.637Z,98266.53
2022-07-28T11:52:02.659Z,98265.41
2022-07-28T11:54:32.946Z,98253.63
2022-07-28T11:57:02.385Z,98245.09
2022-07-28T11:59:40.939Z,98241.75
2022-07-28T12:02:09.161Z,98227.97
2022-07-28T12:04:38.197Z,98237.91
2022-07-28T12:07:07.056Z,98236.22
2022-07-28T12:09:42.498Z,98234.66
2022-07-28T12:12:10.938Z,98228.88
2022-07-28T12:14:39.668Z,98227.38
2022-07-28T12:17:10.556Z,98234.44
2022-07-28T12:19:40.606Z,98222.50
2022-07-28T12:22:15.645Z,98216.03
2022-07-28T12:24:45.928Z,98215.69
2022-07-28T12:27:16.653Z,98216.66
2022-07-28T12:29:47.916Z,98217.75
2022-07-28T12:32:18.612Z,98218.19
2022-07-28T12:34:46.952Z,98218.78
2022-07-28T12:37:15.845Z,98211.16
2022-07-28T12:39:51.525Z,98209.47
2022-07-28T12:42:19.845Z,98204.69
2022-07-28T12:44:48.706Z,98205.59
2022-07-28T12:47:17.692Z,98205.59
2022-07-28T12:49:45.937Z,98209.91
2022-07-28T12:52:17.888Z,98199.94
2022-07-28T12:54:52.943Z,98209.28
2022-07-28T12:57:43.244Z,98200.44
2022-07-28T13:00:18.902Z,98191.75
2022-07-28T13:02:47.177Z,98190.31
2022-07-28T13:05:54.154Z,98184.19
2022-07-28T13:08:22.805Z,98188.69
2022-07-28T13:10:57.087Z,98186.03
2022-07-28T13:13:25.840Z,98195.78
2022-07-28T13:16:12.438Z,98189.00
2022-07-28T13:18:40.791Z,98181.25
2022-07-28T13:21:09.039Z,98184.00
2022-07-28T13:23:37.125Z,98169.22
2022-07-28T13:26:07.206Z,98179.53
2022-07-28T13:28:39.478Z,98182.50
2022-07-28T13:31:07.685Z,98174.56
2022-07-28T13:33:35.846Z,98175.00
2022-07-28T13:36:03.957Z,98176.19
2022-07-28T13:38:33.451Z,98171.72
2022-07-28T13:41:01.568Z,98173.50
2022-07-28T13:43:35.795Z,98159.25
2022-07-28T13:46:06.735Z,98163.66
2022-07-28T13:48:40.220Z,98163.47
2022-07-28T13:51:28.994Z,98151.63
2022-07-28T13:53:57.082Z,98160.13
2022-07-28T13:56:41.259Z,98155.81
2022-07-28T13:59:10.852Z,98151.78
2022-07-28T14:01:41.494Z,98150.47
2022-07-28T14:04:14.821Z,98148.31
2022-07-28T14:06:45.798Z,98147.34
2022-07-28T14:09:18.826Z,98144.22
2022-07-28T14:11:53.730Z,98142.88
2022-07-28T14:14:24.785Z,98140.63
2022-07-28T14:16:54.398Z,98130.59
2022-07-28T14:19:39.628Z,98134.34
2022-07-28T14:22:13.190Z,98127.25
2022-07-28T14:24:44.114Z,98120.13
2022-07-28T14:27:12.192Z,98128.66
2022-07-28T14:29:43.220Z,98108.28
2022-07-28T14:32:11.276Z,98114.50
2022-07-28T14:34:40.491Z,98116.00
2022-07-28T14:37:09.519Z,98115.09
2022-07-28T14:39:38.054Z,98104.25
2022-07-28T14:42:06.266Z,98113.22
2022-07-28T14:44:37.409Z,98109.44
2022-07-28T14:47:07.608Z,98108.00
2022-07-28T14:49:36.058Z,98109.91
2022-07-28T14:52:04.382Z,98099.00
2022-07-28T14:54:34.064Z,98116.25
2022-07-28T14:57:02.391Z,98110.66
2022-07-28T14:59:30.483Z,98106.78
2022-07-28T15:02:01.097Z,98114.56
2022-07-28T15:04:32.730Z,98116.31
2022-07-28T15:07:00.817Z,98124.63
2022-07-28T15:09:28.872Z,98112.94
2022-07-28T15:11:59.241Z,98115.00
2022-07-28T15:14:27.337Z,98119.94
2022-07-28T15:16:55.383Z,98117.56
2022-07-28T15:19:23.494Z,98108.84
2022-07-28T15:21:52.909Z,98107.63
2022-07-28T15:24:22.242Z,98111.47
2022-07-28T15:26:50.274Z,98110.78
2022-07-28T15:29:19.694Z,98104.53
2022-07-28T15:31:49.653Z,98108.41
2022-07-28T15:34:18.227Z,98101.97
2022-07-28T15:36:46.561Z,98082.06
2022-07-28T15:39:15.960Z,98106.91
2022-07-28T15:41:44.657Z,98105.13
2022-07-28T15:44:16.334Z,98089.91
2022-07-28T15:46:46.516Z,98091.41
2022-07-28T15:49:15.198Z,98088.38
2022-07-28T15:51:43.295Z,98095.16
2022-07-28T15:54:11.369Z,98102.72
2022-07-28T15:56:41.952Z,98097.16
2022-07-28T15:59:10.061Z,98096.78
2022-07-28T16:01:43.381Z,98097.06
2022-07-28T16:04:13.894Z,98090.06
2022-07-28T16:07:14.719Z,98079.41
2022-07-28T16:09:45.748Z,98077.66
2022-07-28T16:12:16.173Z,98072.59
2022-07-28T16:14:44.267Z,98063.31
2022-07-28T16:17:14.898Z,98069.44
2022-07-28T16:19:49.533Z,98059.72
2022-07-28T16:22:18.798Z,98058.03
2022-07-28T16:24:50.628Z,98058.19
2022-07-28T16:27:20.108Z,98062.25
2022-07-28T16:29:49.366Z,98057.31
2022-07-28T16:32:17.560Z,98058.22
2022-07-28T16:34:45.872Z,98051.72
2022-07-28T16:37:19.236Z,98050.94
2022-07-28T16:39:48.501Z,98055.72
2022-07-28T16:42:16.683Z,98045.84
2022-07-28T16:44:47.291Z,98048.16
2022-07-28T16:47:15.483Z,98043.25
2022-07-28T16:49:45.923Z,98046.97
2022-07-28T16:52:14.769Z,98048.34
2022-07-28T16:54:46.123Z,98045.91
2022-07-28T16:57:17.951Z,98053.25
2022-07-28T16:59:48.709Z,98051.09
2022-07-28T17:02:20.332Z,98051.63
2022-07-28T17:04:48.664Z,98057.06
2022-07-28T17:07:16.807Z,98056.91
2022-07-28T17:09:45.120Z,98053.91
2022-07-28T17:12:15.556Z,98047.06
2022-07-28T17:14:43.618Z,98040.88
2022-07-28T17:17:13.261Z,98043.66
2022-07-28T17:19:46.661Z,98045.66
2022-07-28T17:22:15.312Z,98043.38
2022-07-28T17:24:43.474Z,98044.66
2022-07-28T17:29:59.633Z,98047.75
2022-07-28T17:32:29.216Z,98054.91
2022-07-28T17:34:57.301Z,98056.88
2022-07-28T17:37:27.217Z,98064.31
2022-07-28T17:39:58.506Z,98066.69
2022-07-28T17:42:26.604Z,98071.09
2022-07-28T17:44:59.350Z,98071.78
2022-07-28T17:47:35.942Z,98072.59
2022-07-28T17:50:07.169Z,98077.44
2022-07-28T17:52:35.591Z,98085.66
2022-07-28T17:55:23.358Z,98086.81
2022-07-28T17:57:54.677Z,98082.06
2022-07-28T18:00:22.916Z,98085.81
2022-07-28T18:02:52.370Z,98085.81
2022-07-28T18:05:22.822Z,98087.97
2022-07-28T18:07:53.713Z,98086.91
2022-07-28T18:10:25.079Z,98084.97
2022-07-28T18:12:55.270Z,98088.56
2022-07-28T18:15:23.770Z,98079.16
2022-07-28T18:17:56.122Z,98070.84
2022-07-28T18:20:24.796Z,98070.16
2022-07-28T18:22:53.234Z,98068.53
2022-07-28T18:25:21.348Z,98071.28
2022-07-28T18:27:50.576Z,98067.41
2022-07-28T18:30:19.666Z,98071.63
2022-07-28T18:32:47.966Z,98076.41
2022-07-28T18:35:17.866Z,98082.16
2022-07-28T18:37:46.461Z,98077.50
2022-07-28T18:40:15.241Z,98070.78
2022-07-28T18:42:43.460Z,98076.41
2022-07-28T18:45:14.343Z,98088.03
2022-07-28T18:47:45.566Z,98091.16
2022-07-28T18:50:30.397Z,98092.28
2022-07-28T18:52:59.927Z,98091.09
2022-07-28T18:55:28.154Z,98088.34
2022-07-28T18:57:56.394Z,98092.69
2022-07-28T19:00:24.510Z,98094.03
2022-07-28T19:02:52.601Z,98088.03
2022-07-28T19:05:22.083Z,98089.19
2022-07-28T19:07:50.162Z,98089.69
2022-07-28T19:10:18.257Z,98091.09
2022-07-28T19:12:48.101Z,98096.78
2022-07-28T19:15:16.267Z,98104.03
2022-07-28T19:17:44.331Z,98104.19
2022-07-28T19:20:12.736Z,98097.00
2022-07-28T19:22:42.206Z,98105.22
2022-07-28T19:25:10.810Z,98103.59
2022-07-28T19:27:39.464Z,98111.41
2022-07-28T19:30:08.827Z,98117.13
2022-07-28T19:32:38.611Z,98113.53
2022-07-28T19:35:07.299Z,98112.75
2022-07-28T19:37:36.328Z,98119.28
2022-07-28T19:40:07.186Z,98119.44
2022-07-28T19:42:37.546Z,98126.25
2022-07-28T19:45:06.146Z,98132.94
2022-07-28T19:47:36.966Z,98133.28
2022-07-28T19:50:05.966Z,98145.63
2022-07-28T19:52:37.466Z,98151.13
2022-07-28T19:55:10.767Z,98156.34
2022-07-28T19:57:42.227Z,98161.38
2022-07-28T20:00:10.950Z,98163.47
2022-07-28T20:02:41.746Z,98171.28
2022-07-28T20:05:10.738Z,98165.59
2022-07-28T20:07:38.893Z,98169.66
2022-07-28T20:10:09.340Z,98171.63
2022-07-28T20:12:37.443Z,98174.81
2022-07-28T20:15:08.939Z,98181.63
2022-07-28T20:17:39.648Z,98173.84
2022-07-28T20:20:08.694Z,98172.72
2022-07-28T20:22:39.087Z,98185.19
2022-07-28T20:25:10.065Z,98186.03
2022-07-28T20:27:40.397Z,98193.78
2022-07-28T20:30:09.693Z,98203.72
2022-07-28T20:32:37.940Z,98210.88
2022-07-28T20:35:07.006Z,98230.00
2022-07-28T20:37:36.779Z,98241.41
2022-07-28T20:40:05.853Z,98260.91
2022-07-28T20:42:37.889Z,98264.00
2022-07-28T20:45:06.360Z,98275.34
2022-07-28T20:47:34.719Z,98276.66
2022-07-28T20:50:05.133Z,98306.28
2022-07-28T20:52:33.983Z,98319.50
2022-07-28T20:55:02.028Z,98338.69
2022-07-28T20:57:30.147Z,98354.72
2022-07-28T20:59:59.613Z,98352.44
2022-07-28T21:02:27.820Z,98347.56
2022-07-28T21:04:55.938Z,98351.16
2022-07-28T21:08:00.682Z,98353.91
2022-07-28T21:10:12.703Z,98351.81
2022-07-28T21:12:41.015Z,98347.53
2022-07-28T21:15:10.804Z,98335.78
2022-07-28T21:17:38.901Z,98342.78
2022-07-28T21:20:07.312Z,98328.13
2022-07-28T21:22:35.368Z,98322.75
2022-07-28T21:25:03.445Z,98326.66
2022-07-28T21:27:52.671Z,98335.25
2022-07-28T21:30:27.775Z,98345.88
2022-07-28T21:32:56.555Z,98345.00
2022-07-28T21:35:24.852Z,98347.50
2022-07-28T21:37:53.347Z,98350.84
2022-07-28T21:40:24.075Z,98359.53
2022-07-28T21:42:52.129Z,98350.25
2022-07-28T21:45:20.350Z,98360.91
2022-07-28T21:47:49.732Z,98358.41
2022-07-28T21:50:17.839Z,98351.16
2022-07-28T21:52:45.913Z,98356.53
2022-07-28T21:55:14.213Z,98346.03
2022-07-28T21:57:42.624Z,98350.94
2022-07-28T22:02:38.325Z,98354.06
2022-07-28T22:05:09.514Z,98354.59
2022-07-28T22:07:37.636Z,98352.78
2022-07-28T22:10:06.207Z,98345.53
2022-07-28T22:12:36.620Z,98349.22
2022-07-28T22:15:05.219Z,98351.13
2022-07-28T22:17:33.286Z,98353.00
2022-07-28T22:20:02.758Z,98358.28
2022-07-28T22:22:32.962Z,98364.09
2022-07-28T22:25:01.054Z,98368.16
2022-07-28T22:27:29.136Z,98386.94
2022-07-28T22:29:57.174Z,98376.03
2022-07-28T22:32:28.839Z,98380.94
2022-07-28T22:34:57.905Z,98392.91
2022-07-28T22:37:27.311Z,98382.88
2022-07-28T22:39:55.431Z,98398.91
2022-07-28T22:42:23.487Z,98392.94
2022-07-28T22:44:51.562Z,98388.69
2022-07-28T22:47:19.582Z,98400.31
2022-07-28T22:49:47.650Z,98403.88
2022-07-28T22:52:15.693Z,98391.78
2022-07-28T22:54:45.015Z,98385.72
2022-07-28T22:57:13.029Z,98385.84
2022-07-28T22:59:42.023Z,98377.50
2022-07-28T23:02:15.062Z,98381.81
2022-07-28T23:04:44.936Z,98366.66
2022-07-28T23:07:16.692Z,98362.56
2022-07-28T23:09:47.740Z,98358.81
2022-07-28T23:12:15.770Z,98356.38
2022-07-28T23:14:43.817Z,98361.13
2022-07-28T23:17:11.877Z,98365.38
2022-07-28T23:19:39.962Z,98366.47
2022-07-28T23:22:07.990Z,98361.38
2022-07-28T23:24:36.055Z,98353.66
2022-07-28T23:27:05.900Z,98356.59
2022-07-28T23:29:36.122Z,98359.41
2022-07-28T23:32:04.227Z,98358.19
2022-07-28T23:34:32.305Z,98352.41
2022-07-28T23:37:00.379Z,98348.22
2022-07-28T23:39:30.823Z,98353.00
2022-07-28T23:41:58.868Z,98346.69
2022-07-28T23:44:28.255Z,98344.06
2022-07-28T23:46:56.807Z,98342.44
2022-07-28T23:49:27.101Z,98339.63
2022-07-28T23:51:55.192Z,98355.13
2022-07-28T23:54:23.237Z,98350.69
2022-07-28T23:56:52.009Z,98355.47
2022-07-28T23:59:20.040Z,98358.19
